sensor_id;sensor_type;location;lat;lon;timestamp;P1;durP1;ratioP1;P2;durP2;ratioP2
52188;SDS011;38162;45.926;13.608;2022-12-19T00:00:22;14.10;;;9.27;;
52188;SDS011;38162;45.926;13.608;2022-12-19T00:02:48;12.93;;;8.47;;
52188;SDS011;38162;45.926;13.608;2022-12-19T00:05:14;12.67;;;8.37;;
52188;SDS011;38162;45.926;13.608;2022-12-19T00:07:43;14.60;;;8.53;;
52188;SDS011;38162;45.926;13.608;2022-12-19T00:10:12;13.77;;;8.75;;
52188;SDS011;38162;45.926;13.608;2022-12-19T00:12:38;13.17;;;8.30;;
52188;SDS011;38162;45.926;13.608;2022-12-19T00:15:05;14.57;;;8.47;;
52188;SDS011;38162;45.926;13.608;2022-12-19T00:17:31;12.73;;;8.17;;
52188;SDS011;38162;45.926;13.608;2022-12-19T00:19:57;11.83;;;8.07;;
52188;SDS011;38162;45.926;13.608;2022-12-19T00:22:23;11.93;;;7.80;;
52188;SDS011;38162;45.926;13.608;2022-12-19T00:24:49;11.60;;;7.73;;
52188;SDS011;38162;45.926;13.608;2022-12-19T00:27:16;12.63;;;8.87;;
52188;SDS011;38162;45.926;13.608;2022-12-19T00:29:42;12.17;;;7.70;;
52188;SDS011;38162;45.926;13.608;2022-12-19T00:32:08;13.00;;;8.30;;
52188;SDS011;38162;45.926;13.608;2022-12-19T00:34:34;13.37;;;8.83;;
52188;SDS011;38162;45.926;13.608;2022-12-19T00:37:00;12.27;;;8.67;;
52188;SDS011;38162;45.926;13.608;2022-12-19T00:39:26;14.60;;;9.30;;
52188;SDS011;38162;45.926;13.608;2022-12-19T00:41:52;14.03;;;8.73;;
52188;SDS011;38162;45.926;13.608;2022-12-19T00:44:18;12.60;;;8.60;;
52188;SDS011;38162;45.926;13.608;2022-12-19T00:46:44;13.60;;;8.47;;
52188;SDS011;38162;45.926;13.608;2022-12-19T00:49:11;12.30;;;8.00;;
52188;SDS011;38162;45.926;13.608;2022-12-19T00:51:37;13.07;;;7.57;;
52188;SDS011;38162;45.926;13.608;2022-12-19T00:54:03;11.90;;;7.30;;
52188;SDS011;38162;45.926;13.608;2022-12-19T00:56:30;12.53;;;7.47;;
52188;SDS011;38162;45.926;13.608;2022-12-19T00:58:57;11.93;;;7.87;;
52188;SDS011;38162;45.926;13.608;2022-12-19T01:01:24;12.37;;;8.27;;
52188;SDS011;38162;45.926;13.608;2022-12-19T01:03:51;11.87;;;7.10;;
52188;SDS011;38162;45.926;13.608;2022-12-19T01:06:17;10.70;;;7.40;;
52188;SDS011;38162;45.926;13.608;2022-12-19T01:08:43;11.37;;;7.67;;
52188;SDS011;38162;45.926;13.608;2022-12-19T01:11:09;12.50;;;8.30;;
52188;SDS011;38162;45.926;13.608;2022-12-19T01:13:36;10.97;;;7.33;;
52188;SDS011;38162;45.926;13.608;2022-12-19T01:16:03;10.23;;;7.40;;
52188;SDS011;38162;45.926;13.608;2022-12-19T01:18:29;11.90;;;7.67;;
52188;SDS011;38162;45.926;13.608;2022-12-19T01:20:58;10.03;;;7.30;;
52188;SDS011;38162;45.926;13.608;2022-12-19T01:23:24;13.50;;;8.27;;
52188;SDS011;38162;45.926;13.608;2022-12-19T01:25:53;11.10;;;7.20;;
52188;SDS011;38162;45.926;13.608;2022-12-19T01:28:20;10.67;;;6.87;;
52188;SDS011;38162;45.926;13.608;2022-12-19T01:30:46;10.53;;;7.40;;
52188;SDS011;38162;45.926;13.608;2022-12-19T01:33:13;12.70;;;7.50;;
52188;SDS011;38162;45.926;13.608;2022-12-19T01:35:40;11.77;;;7.20;;
52188;SDS011;38162;45.926;13.608;2022-12-19T01:38:06;11.93;;;7.33;;
52188;SDS011;38162;45.926;13.608;2022-12-19T01:40:32;9.57;;;6.67;;
52188;SDS011;38162;45.926;13.608;2022-12-19T01:43:00;10.60;;;7.20;;
52188;SDS011;38162;45.926;13.608;2022-12-19T01:45:33;11.03;;;7.33;;
52188;SDS011;38162;45.926;13.608;2022-12-19T01:50:31;11.47;;;7.53;;
52188;SDS011;38162;45.926;13.608;2022-12-19T01:52:59;10.53;;;6.87;;
52188;SDS011;38162;45.926;13.608;2022-12-19T01:55:25;10.90;;;7.77;;
52188;SDS011;38162;45.926;13.608;2022-12-19T01:57:52;10.23;;;7.67;;
52188;SDS011;38162;45.926;13.608;2022-12-19T02:00:19;12.30;;;8.13;;
52188;SDS011;38162;45.926;13.608;2022-12-19T02:02:47;12.10;;;6.90;;
52188;SDS011;38162;45.926;13.608;2022-12-19T02:05:13;12.67;;;7.57;;
52188;SDS011;38162;45.926;13.608;2022-12-19T02:07:40;13.37;;;8.00;;
52188;SDS011;38162;45.926;13.608;2022-12-19T02:10:07;13.33;;;7.93;;
52188;SDS011;38162;45.926;13.608;2022-12-19T02:12:34;11.70;;;8.17;;
52188;SDS011;38162;45.926;13.608;2022-12-19T02:15:01;11.70;;;7.47;;
52188;SDS011;38162;45.926;13.608;2022-12-19T02:17:33;11.10;;;7.37;;
52188;SDS011;38162;45.926;13.608;2022-12-19T02:25:29;12.60;;;8.03;;
52188;SDS011;38162;45.926;13.608;2022-12-19T02:33:01;13.07;;;8.60;;
52188;SDS011;38162;45.926;13.608;2022-12-19T02:35:32;13.20;;;8.90;;
52188;SDS011;38162;45.926;13.608;2022-12-19T02:40:27;14.37;;;9.40;;
52188;SDS011;38162;45.926;13.608;2022-12-19T02:42:57;13.63;;;9.73;;
52188;SDS011;38162;45.926;13.608;2022-12-19T02:45:24;12.77;;;8.67;;
52188;SDS011;38162;45.926;13.608;2022-12-19T02:47:51;13.03;;;8.90;;
52188;SDS011;38162;45.926;13.608;2022-12-19T02:50:18;14.20;;;8.73;;
52188;SDS011;38162;45.926;13.608;2022-12-19T02:52:45;14.07;;;8.47;;
52188;SDS011;38162;45.926;13.608;2022-12-19T02:55:13;11.47;;;8.20;;
52188;SDS011;38162;45.926;13.608;2022-12-19T03:00:34;13.48;;;8.82;;
52188;SDS011;38162;45.926;13.608;2022-12-19T03:05:48;12.73;;;8.40;;
52188;SDS011;38162;45.926;13.608;2022-12-19T03:08:23;13.33;;;8.73;;
52188;SDS011;38162;45.926;13.608;2022-12-19T03:15:54;12.73;;;8.50;;
52188;SDS011;38162;45.926;13.608;2022-12-19T03:18:21;12.87;;;8.60;;
52188;SDS011;38162;45.926;13.608;2022-12-19T03:20:58;12.97;;;8.63;;
52188;SDS011;38162;45.926;13.608;2022-12-19T03:23:27;15.50;;;8.30;;
52188;SDS011;38162;45.926;13.608;2022-12-19T03:25:54;13.13;;;8.57;;
52188;SDS011;38162;45.926;13.608;2022-12-19T03:28:26;15.20;;;9.07;;
52188;SDS011;38162;45.926;13.608;2022-12-19T03:33:20;14.07;;;8.73;;
52188;SDS011;38162;45.926;13.608;2022-12-19T03:35:47;13.23;;;8.67;;
52188;SDS011;38162;45.926;13.608;2022-12-19T03:38:14;12.63;;;8.93;;
52188;SDS011;38162;45.926;13.608;2022-12-19T03:40:41;14.37;;;9.30;;
52188;SDS011;38162;45.926;13.608;2022-12-19T03:43:08;14.30;;;9.30;;
52188;SDS011;38162;45.926;13.608;2022-12-19T03:48:13;15.40;;;9.53;;
52188;SDS011;38162;45.926;13.608;2022-12-19T03:56:15;14.73;;;9.23;;
52188;SDS011;38162;45.926;13.608;2022-12-19T03:58:39;13.93;;;8.93;;
52188;SDS011;38162;45.926;13.608;2022-12-19T04:01:07;17.13;;;8.20;;
52188;SDS011;38162;45.926;13.608;2022-12-19T04:03:34;12.50;;;9.10;;
52188;SDS011;38162;45.926;13.608;2022-12-19T04:06:00;12.93;;;8.47;;
52188;SDS011;38162;45.926;13.608;2022-12-19T04:08:28;14.50;;;8.87;;
52188;SDS011;38162;45.926;13.608;2022-12-19T04:11:00;11.67;;;8.70;;
52188;SDS011;38162;45.926;13.608;2022-12-19T04:13:35;14.18;;;8.93;;
52188;SDS011;38162;45.926;13.608;2022-12-19T04:16:15;13.77;;;9.03;;
52188;SDS011;38162;45.926;13.608;2022-12-19T04:18:43;14.80;;;9.50;;
52188;SDS011;38162;45.926;13.608;2022-12-19T04:21:13;14.13;;;9.23;;
52188;SDS011;38162;45.926;13.608;2022-12-19T04:23:42;14.47;;;9.10;;
52188;SDS011;38162;45.926;13.608;2022-12-19T04:26:10;14.63;;;9.63;;
52188;SDS011;38162;45.926;13.608;2022-12-19T04:28:39;14.53;;;9.77;;
52188;SDS011;38162;45.926;13.608;2022-12-19T04:31:06;15.10;;;10.10;;
52188;SDS011;38162;45.926;13.608;2022-12-19T04:33:35;13.33;;;9.60;;
52188;SDS011;38162;45.926;13.608;2022-12-19T04:36:02;15.33;;;9.77;;
52188;SDS011;38162;45.926;13.608;2022-12-19T04:38:28;15.10;;;9.70;;
52188;SDS011;38162;45.926;13.608;2022-12-19T04:40:54;13.97;;;9.47;;
52188;SDS011;38162;45.926;13.608;2022-12-19T04:43:20;13.97;;;9.70;;
52188;SDS011;38162;45.926;13.608;2022-12-19T04:45:47;16.00;;;10.70;;
52188;SDS011;38162;45.926;13.608;2022-12-19T04:48:13;14.63;;;9.80;;
52188;SDS011;38162;45.926;13.608;2022-12-19T04:50:39;14.30;;;9.77;;
52188;SDS011;38162;45.926;13.608;2022-12-19T04:53:05;15.57;;;10.10;;
52188;SDS011;38162;45.926;13.608;2022-12-19T04:55:31;16.27;;;9.97;;
52188;SDS011;38162;45.926;13.608;2022-12-19T04:57:57;14.77;;;9.97;;
52188;SDS011;38162;45.926;13.608;2022-12-19T05:00:23;14.47;;;9.40;;
52188;SDS011;38162;45.926;13.608;2022-12-19T05:02:50;14.47;;;9.57;;
52188;SDS011;38162;45.926;13.608;2022-12-19T05:05:16;13.97;;;9.33;;
52188;SDS011;38162;45.926;13.608;2022-12-19T05:07:43;14.70;;;10.00;;
52188;SDS011;38162;45.926;13.608;2022-12-19T05:10:09;13.80;;;9.70;;
52188;SDS011;38162;45.926;13.608;2022-12-19T05:12:35;13.70;;;9.37;;
52188;SDS011;38162;45.926;13.608;2022-12-19T05:15:01;18.70;;;11.53;;
52188;SDS011;38162;45.926;13.608;2022-12-19T05:17:27;16.57;;;10.77;;
52188;SDS011;38162;45.926;13.608;2022-12-19T05:19:53;15.07;;;10.77;;
52188;SDS011;38162;45.926;13.608;2022-12-19T05:22:20;13.07;;;10.33;;
52188;SDS011;38162;45.926;13.608;2022-12-19T05:24:46;17.40;;;10.07;;
52188;SDS011;38162;45.926;13.608;2022-12-19T05:27:12;15.77;;;10.50;;
52188;SDS011;38162;45.926;13.608;2022-12-19T05:29:38;15.13;;;10.30;;
52188;SDS011;38162;45.926;13.608;2022-12-19T05:32:04;16.40;;;10.00;;
52188;SDS011;38162;45.926;13.608;2022-12-19T05:34:31;17.27;;;10.30;;
52188;SDS011;38162;45.926;13.608;2022-12-19T05:36:57;14.93;;;9.67;;
52188;SDS011;38162;45.926;13.608;2022-12-19T05:39:23;15.03;;;10.03;;
52188;SDS011;38162;45.926;13.608;2022-12-19T05:41:49;16.17;;;10.43;;
52188;SDS011;38162;45.926;13.608;2022-12-19T05:44:15;13.87;;;10.00;;
52188;SDS011;38162;45.926;13.608;2022-12-19T05:46:41;15.13;;;10.10;;
52188;SDS011;38162;45.926;13.608;2022-12-19T05:49:07;15.67;;;9.80;;
52188;SDS011;38162;45.926;13.608;2022-12-19T05:51:33;15.10;;;10.17;;
52188;SDS011;38162;45.926;13.608;2022-12-19T05:53:59;17.27;;;10.70;;
52188;SDS011;38162;45.926;13.608;2022-12-19T05:56:26;15.30;;;10.20;;
52188;SDS011;38162;45.926;13.608;2022-12-19T05:58:52;16.00;;;10.80;;
52188;SDS011;38162;45.926;13.608;2022-12-19T06:01:19;16.27;;;10.73;;
52188;SDS011;38162;45.926;13.608;2022-12-19T06:03:46;18.30;;;10.90;;
52188;SDS011;38162;45.926;13.608;2022-12-19T06:06:13;18.10;;;11.17;;
52188;SDS011;38162;45.926;13.608;2022-12-19T06:08:39;16.13;;;10.83;;
52188;SDS011;38162;45.926;13.608;2022-12-19T06:11:06;18.60;;;11.13;;
52188;SDS011;38162;45.926;13.608;2022-12-19T06:13:32;18.83;;;10.43;;
52188;SDS011;38162;45.926;13.608;2022-12-19T06:15:59;20.77;;;11.50;;
52188;SDS011;38162;45.926;13.608;2022-12-19T06:18:26;15.43;;;10.50;;
52188;SDS011;38162;45.926;13.608;2022-12-19T06:20:56;16.80;;;10.80;;
52188;SDS011;38162;45.926;13.608;2022-12-19T06:23:22;18.97;;;11.87;;
52188;SDS011;38162;45.926;13.608;2022-12-19T06:25:48;17.77;;;11.40;;
52188;SDS011;38162;45.926;13.608;2022-12-19T06:28:14;21.50;;;11.43;;
52188;SDS011;38162;45.926;13.608;2022-12-19T06:30:40;22.87;;;11.87;;
52188;SDS011;38162;45.926;13.608;2022-12-19T06:33:06;16.10;;;10.97;;
52188;SDS011;38162;45.926;13.608;2022-12-19T06:35:33;19.73;;;10.60;;
52188;SDS011;38162;45.926;13.608;2022-12-19T06:37:59;18.77;;;11.80;;
52188;SDS011;38162;45.926;13.608;2022-12-19T06:40:25;22.67;;;13.00;;
52188;SDS011;38162;45.926;13.608;2022-12-19T06:43:10;19.63;;;11.33;;
52188;SDS011;38162;45.926;13.608;2022-12-19T06:45:36;18.47;;;11.80;;
52188;SDS011;38162;45.926;13.608;2022-12-19T06:48:02;17.93;;;11.63;;
52188;SDS011;38162;45.926;13.608;2022-12-19T06:50:28;20.83;;;12.77;;
52188;SDS011;38162;45.926;13.608;2022-12-19T06:52:54;19.20;;;11.13;;
52188;SDS011;38162;45.926;13.608;2022-12-19T06:55:21;17.23;;;11.73;;
52188;SDS011;38162;45.926;13.608;2022-12-19T06:57:47;17.60;;;11.87;;
52188;SDS011;38162;45.926;13.608;2022-12-19T07:00:13;18.30;;;11.77;;
52188;SDS011;38162;45.926;13.608;2022-12-19T07:02:43;19.10;;;12.40;;
52188;SDS011;38162;45.926;13.608;2022-12-19T07:05:10;17.63;;;11.37;;
52188;SDS011;38162;45.926;13.608;2022-12-19T07:07:37;26.07;;;12.30;;
52188;SDS011;38162;45.926;13.608;2022-12-19T07:10:04;24.07;;;12.33;;
52188;SDS011;38162;45.926;13.608;2022-12-19T07:12:30;19.77;;;12.73;;
52188;SDS011;38162;45.926;13.608;2022-12-19T07:14:56;23.13;;;13.13;;
52188;SDS011;38162;45.926;13.608;2022-12-19T07:17:23;22.13;;;13.53;;
52188;SDS011;38162;45.926;13.608;2022-12-19T07:19:49;18.00;;;12.50;;
52188;SDS011;38162;45.926;13.608;2022-12-19T07:22:15;18.47;;;11.90;;
52188;SDS011;38162;45.926;13.608;2022-12-19T07:24:42;18.47;;;12.23;;
52188;SDS011;38162;45.926;13.608;2022-12-19T07:27:08;22.37;;;13.23;;
52188;SDS011;38162;45.926;13.608;2022-12-19T07:29:34;19.10;;;12.23;;
52188;SDS011;38162;45.926;13.608;2022-12-19T07:32:00;23.23;;;12.37;;
52188;SDS011;38162;45.926;13.608;2022-12-19T07:34:26;18.77;;;11.97;;
52188;SDS011;38162;45.926;13.608;2022-12-19T07:36:54;22.63;;;12.33;;
52188;SDS011;38162;45.926;13.608;2022-12-19T07:39:20;18.60;;;12.23;;
52188;SDS011;38162;45.926;13.608;2022-12-19T07:41:46;16.47;;;10.93;;
52188;SDS011;38162;45.926;13.608;2022-12-19T07:44:13;16.97;;;11.63;;
52188;SDS011;38162;45.926;13.608;2022-12-19T07:46:40;20.90;;;11.97;;
52188;SDS011;38162;45.926;13.608;2022-12-19T07:49:07;18.57;;;12.10;;
52188;SDS011;38162;45.926;13.608;2022-12-19T07:51:33;21.07;;;13.07;;
52188;SDS011;38162;45.926;13.608;2022-12-19T07:53:59;20.70;;;13.20;;
52188;SDS011;38162;45.926;13.608;2022-12-19T07:56:25;21.10;;;12.67;;
52188;SDS011;38162;45.926;13.608;2022-12-19T07:58:51;19.27;;;12.63;;
52188;SDS011;38162;45.926;13.608;2022-12-19T08:01:17;22.63;;;13.60;;
52188;SDS011;38162;45.926;13.608;2022-12-19T08:03:44;19.20;;;13.23;;
52188;SDS011;38162;45.926;13.608;2022-12-19T08:06:10;19.23;;;12.33;;
52188;SDS011;38162;45.926;13.608;2022-12-19T08:08:36;18.07;;;12.47;;
52188;SDS011;38162;45.926;13.608;2022-12-19T08:11:09;20.03;;;11.93;;
52188;SDS011;38162;45.926;13.608;2022-12-19T08:13:35;18.87;;;12.67;;
52188;SDS011;38162;45.926;13.608;2022-12-19T08:16:01;20.43;;;12.07;;
52188;SDS011;38162;45.926;13.608;2022-12-19T08:18:28;20.30;;;12.40;;
52188;SDS011;38162;45.926;13.608;2022-12-19T08:20:54;19.93;;;12.20;;
52188;SDS011;38162;45.926;13.608;2022-12-19T08:23:20;24.37;;;12.90;;
52188;SDS011;38162;45.926;13.608;2022-12-19T08:25:46;18.40;;;12.30;;
52188;SDS011;38162;45.926;13.608;2022-12-19T08:28:12;18.00;;;12.10;;
52188;SDS011;38162;45.926;13.608;2022-12-19T08:30:39;20.43;;;12.53;;
52188;SDS011;38162;45.926;13.608;2022-12-19T08:33:05;19.97;;;13.03;;
52188;SDS011;38162;45.926;13.608;2022-12-19T08:35:31;18.10;;;12.63;;
52188;SDS011;38162;45.926;13.608;2022-12-19T08:37:58;19.40;;;12.23;;
52188;SDS011;38162;45.926;13.608;2022-12-19T08:40:24;19.17;;;12.10;;
52188;SDS011;38162;45.926;13.608;2022-12-19T08:42:50;18.50;;;12.60;;
52188;SDS011;38162;45.926;13.608;2022-12-19T08:45:16;18.00;;;12.33;;
52188;SDS011;38162;45.926;13.608;2022-12-19T08:47:42;18.70;;;11.83;;
52188;SDS011;38162;45.926;13.608;2022-12-19T08:50:09;19.80;;;12.83;;
52188;SDS011;38162;45.926;13.608;2022-12-19T08:52:35;19.47;;;12.33;;
52188;SDS011;38162;45.926;13.608;2022-12-19T08:55:02;18.37;;;11.37;;
52188;SDS011;38162;45.926;13.608;2022-12-19T08:57:28;18.27;;;11.57;;
52188;SDS011;38162;45.926;13.608;2022-12-19T08:59:54;20.03;;;13.07;;
52188;SDS011;38162;45.926;13.608;2022-12-19T09:02:20;18.13;;;12.17;;
52188;SDS011;38162;45.926;13.608;2022-12-19T09:04:48;20.90;;;12.17;;
52188;SDS011;38162;45.926;13.608;2022-12-19T09:07:14;20.13;;;12.40;;
52188;SDS011;38162;45.926;13.608;2022-12-19T09:09:41;19.40;;;12.37;;
52188;SDS011;38162;45.926;13.608;2022-12-19T09:12:07;17.07;;;11.37;;
52188;SDS011;38162;45.926;13.608;2022-12-19T09:14:33;19.37;;;12.00;;
52188;SDS011;38162;45.926;13.608;2022-12-19T09:16:59;19.50;;;11.17;;
52188;SDS011;38162;45.926;13.608;2022-12-19T09:19:26;17.53;;;11.53;;
52188;SDS011;38162;45.926;13.608;2022-12-19T09:21:52;18.00;;;11.43;;
52188;SDS011;38162;45.926;13.608;2022-12-19T09:24:18;21.00;;;11.43;;
52188;SDS011;38162;45.926;13.608;2022-12-19T09:26:44;18.77;;;11.73;;
52188;SDS011;38162;45.926;13.608;2022-12-19T09:29:11;19.10;;;10.90;;
52188;SDS011;38162;45.926;13.608;2022-12-19T09:31:37;17.20;;;10.57;;
52188;SDS011;38162;45.926;13.608;2022-12-19T09:34:03;17.53;;;11.33;;
52188;SDS011;38162;45.926;13.608;2022-12-19T09:36:29;19.60;;;12.00;;
52188;SDS011;38162;45.926;13.608;2022-12-19T09:38:56;19.97;;;10.90;;
52188;SDS011;38162;45.926;13.608;2022-12-19T09:49:00;16.77;;;11.70;;
52188;SDS011;38162;45.926;13.608;2022-12-19T09:51:31;15.97;;;11.33;;
52188;SDS011;38162;45.926;13.608;2022-12-19T09:56:33;15.90;;;10.88;;
52188;SDS011;38162;45.926;13.608;2022-12-19T09:59:15;17.10;;;11.27;;
52188;SDS011;38162;45.926;13.608;2022-12-19T10:04:23;16.97;;;11.17;;
52188;SDS011;38162;45.926;13.608;2022-12-19T10:06:51;16.57;;;11.10;;
52188;SDS011;38162;45.926;13.608;2022-12-19T10:09:18;16.63;;;11.53;;
52188;SDS011;38162;45.926;13.608;2022-12-19T10:16:50;17.97;;;10.60;;
52188;SDS011;38162;45.926;13.608;2022-12-19T10:19:26;16.50;;;10.83;;
52188;SDS011;38162;45.926;13.608;2022-12-19T10:22:02;20.00;;;11.83;;
52188;SDS011;38162;45.926;13.608;2022-12-19T10:27:23;18.47;;;12.13;;
52188;SDS011;38162;45.926;13.608;2022-12-19T10:35:13;18.03;;;12.00;;
52188;SDS011;38162;45.926;13.608;2022-12-19T10:37:42;16.37;;;11.00;;
52188;SDS011;38162;45.926;13.608;2022-12-19T10:45:21;17.13;;;11.40;;
52188;SDS011;38162;45.926;13.608;2022-12-19T10:47:54;17.87;;;11.60;;
52188;SDS011;38162;45.926;13.608;2022-12-19T10:50:22;19.57;;;12.03;;
52188;SDS011;38162;45.926;13.608;2022-12-19T10:52:50;18.43;;;12.00;;
52188;SDS011;38162;45.926;13.608;2022-12-19T10:55:39;17.83;;;11.53;;
52188;SDS011;38162;45.926;13.608;2022-12-19T11:04:32;16.23;;;10.63;;
52188;SDS011;38162;45.926;13.608;2022-12-19T11:14:28;15.98;;;11.32;;
52188;SDS011;38162;45.926;13.608;2022-12-19T11:20:35;16.97;;;11.53;;
52188;SDS011;38162;45.926;13.608;2022-12-19T11:26:10;18.13;;;11.60;;
52188;SDS011;38162;45.926;13.608;2022-12-19T11:29:18;16.60;;;11.50;;
52188;SDS011;38162;45.926;13.608;2022-12-19T11:31:46;19.47;;;11.60;;
52188;SDS011;38162;45.926;13.608;2022-12-19T11:34:20;15.40;;;10.90;;
52188;SDS011;38162;45.926;13.608;2022-12-19T11:39:25;16.67;;;10.57;;
52188;SDS011;38162;45.926;13.608;2022-12-19T11:42:02;17.57;;;11.50;;
52188;SDS011;38162;45.926;13.608;2022-12-19T11:44:33;16.40;;;11.13;;
52188;SDS011;38162;45.926;13.608;2022-12-19T11:47:08;16.53;;;11.03;;
52188;SDS011;38162;45.926;13.608;2022-12-19T11:49:41;15.83;;;11.07;;
52188;SDS011;38162;45.926;13.608;2022-12-19T11:57:00;18.43;;;11.70;;
52188;SDS011;38162;45.926;13.608;2022-12-19T11:59:44;16.60;;;11.13;;
52188;SDS011;38162;45.926;13.608;2022-12-19T12:07:19;15.93;;;11.57;;
52188;SDS011;38162;45.926;13.608;2022-12-19T12:12:29;17.50;;;11.43;;
52188;SDS011;38162;45.926;13.608;2022-12-19T12:17:44;18.90;;;11.10;;
52188;SDS011;38162;45.926;13.608;2022-12-19T12:20:33;19.40;;;11.60;;
52188;SDS011;38162;45.926;13.608;2022-12-19T12:30:44;17.87;;;11.17;;
52188;SDS011;38162;45.926;13.608;2022-12-19T12:35:56;14.77;;;10.53;;
52188;SDS011;38162;45.926;13.608;2022-12-19T12:41:53;15.70;;;10.90;;
52188;SDS011;38162;45.926;13.608;2022-12-19T12:53:25;24.77;;;18.10;;
52188;SDS011;38162;45.926;13.608;2022-12-19T13:05:02;14.32;;;10.30;;
52188;SDS011;38162;45.926;13.608;2022-12-19T13:24:57;17.97;;;11.73;;
52188;SDS011;38162;45.926;13.608;2022-12-19T13:29:53;16.33;;;11.20;;
52188;SDS011;38162;45.926;13.608;2022-12-19T13:32:21;17.30;;;11.53;;
52188;SDS011;38162;45.926;13.608;2022-12-19T13:39:56;19.00;;;14.23;;
52188;SDS011;38162;45.926;13.608;2022-12-19T13:42:25;21.33;;;15.13;;
52188;SDS011;38162;45.926;13.608;2022-12-19T13:47:45;20.63;;;13.87;;
52188;SDS011;38162;45.926;13.608;2022-12-19T13:50:29;16.13;;;11.50;;
52188;SDS011;38162;45.926;13.608;2022-12-19T13:52:55;14.20;;;9.90;;
52188;SDS011;38162;45.926;13.608;2022-12-19T13:55:22;14.53;;;9.97;;
52188;SDS011;38162;45.926;13.608;2022-12-19T13:57:51;16.70;;;9.70;;
52188;SDS011;38162;45.926;13.608;2022-12-19T14:00:20;15.83;;;10.17;;
52188;SDS011;38162;45.926;13.608;2022-12-19T14:02:50;16.23;;;10.30;;
52188;SDS011;38162;45.926;13.608;2022-12-19T14:05:25;17.33;;;10.73;;
52188;SDS011;38162;45.926;13.608;2022-12-19T14:07:51;18.40;;;12.57;;
52188;SDS011;38162;45.926;13.608;2022-12-19T14:10:20;18.63;;;12.63;;
52188;SDS011;38162;45.926;13.608;2022-12-19T14:12:46;16.30;;;12.03;;
52188;SDS011;38162;45.926;13.608;2022-12-19T14:15:33;16.97;;;12.57;;
52188;SDS011;38162;45.926;13.608;2022-12-19T14:18:01;16.43;;;11.33;;
52188;SDS011;38162;45.926;13.608;2022-12-19T14:20:28;16.57;;;10.83;;
52188;SDS011;38162;45.926;13.608;2022-12-19T14:22:58;15.57;;;10.03;;
52188;SDS011;38162;45.926;13.608;2022-12-19T14:28:11;16.23;;;10.60;;
52188;SDS011;38162;45.926;13.608;2022-12-19T14:30:39;15.13;;;10.20;;
52188;SDS011;38162;45.926;13.608;2022-12-19T14:33:16;12.93;;;9.43;;
52188;SDS011;38162;45.926;13.608;2022-12-19T14:54:23;21.50;;;13.27;;
52188;SDS011;38162;45.926;13.608;2022-12-19T14:57:14;19.13;;;11.73;;
52188;SDS011;38162;45.926;13.608;2022-12-19T14:59:50;19.40;;;12.23;;
52188;SDS011;38162;45.926;13.608;2022-12-19T15:02:25;18.40;;;12.97;;
52188;SDS011;38162;45.926;13.608;2022-12-19T15:05:00;19.83;;;13.13;;
52188;SDS011;38162;45.926;13.608;2022-12-19T15:07:27;19.53;;;12.90;;
52188;SDS011;38162;45.926;13.608;2022-12-19T15:09:58;20.17;;;13.50;;
52188;SDS011;38162;45.926;13.608;2022-12-19T15:12:33;19.03;;;11.57;;
52188;SDS011;38162;45.926;13.608;2022-12-19T15:15:33;17.33;;;11.98;;
52188;SDS011;38162;45.926;13.608;2022-12-19T15:18:02;16.75;;;11.90;;
52188;SDS011;38162;45.926;13.608;2022-12-19T15:20:28;18.97;;;11.73;;
52188;SDS011;38162;45.926;13.608;2022-12-19T15:22:54;17.10;;;11.27;;
52188;SDS011;38162;45.926;13.608;2022-12-19T15:25:20;17.43;;;11.50;;
52188;SDS011;38162;45.926;13.608;2022-12-19T15:27:46;15.60;;;11.07;;
52188;SDS011;38162;45.926;13.608;2022-12-19T15:30:16;24.97;;;12.53;;
52188;SDS011;38162;45.926;13.608;2022-12-19T15:32:43;21.13;;;11.67;;
52188;SDS011;38162;45.926;13.608;2022-12-19T15:35:10;16.57;;;11.77;;
52188;SDS011;38162;45.926;13.608;2022-12-19T15:37:37;17.80;;;11.53;;
52188;SDS011;38162;45.926;13.608;2022-12-19T15:40:03;20.67;;;13.07;;
52188;SDS011;38162;45.926;13.608;2022-12-19T15:42:29;17.20;;;12.07;;
52188;SDS011;38162;45.926;13.608;2022-12-19T15:44:56;18.13;;;12.50;;
52188;SDS011;38162;45.926;13.608;2022-12-19T15:47:33;25.23;;;12.33;;
52188;SDS011;38162;45.926;13.608;2022-12-19T15:50:00;18.47;;;12.90;;
52188;SDS011;38162;45.926;13.608;2022-12-19T15:52:30;18.50;;;13.10;;
52188;SDS011;38162;45.926;13.608;2022-12-19T15:54:56;17.60;;;12.50;;
52188;SDS011;38162;45.926;13.608;2022-12-19T15:57:35;27.27;;;17.03;;
52188;SDS011;38162;45.926;13.608;2022-12-19T16:00:04;21.07;;;14.47;;
52188;SDS011;38162;45.926;13.608;2022-12-19T16:02:31;24.57;;;15.50;;
52188;SDS011;38162;45.926;13.608;2022-12-19T16:04:58;21.97;;;13.60;;
52188;SDS011;38162;45.926;13.608;2022-12-19T16:07:24;17.50;;;12.73;;
52188;SDS011;38162;45.926;13.608;2022-12-19T16:09:50;19.63;;;13.97;;
52188;SDS011;38162;45.926;13.608;2022-12-19T16:12:18;19.30;;;13.27;;
52188;SDS011;38162;45.926;13.608;2022-12-19T16:17:21;19.00;;;13.57;;
52188;SDS011;38162;45.926;13.608;2022-12-19T16:22:33;19.73;;;13.60;;
52188;SDS011;38162;45.926;13.608;2022-12-19T16:28:50;22.73;;;14.13;;
52188;SDS011;38162;45.926;13.608;2022-12-19T16:34:51;19.73;;;14.17;;
52188;SDS011;38162;45.926;13.608;2022-12-19T16:40:59;23.23;;;14.97;;
52188;SDS011;38162;45.926;13.608;2022-12-19T16:46:33;19.27;;;14.20;;
52188;SDS011;38162;45.926;13.608;2022-12-19T16:49:19;20.50;;;14.27;;
52188;SDS011;38162;45.926;13.608;2022-12-19T16:51:48;20.50;;;14.70;;
52188;SDS011;38162;45.926;13.608;2022-12-19T16:54:15;21.37;;;15.67;;
52188;SDS011;38162;45.926;13.608;2022-12-19T16:59:12;23.47;;;16.60;;
52188;SDS011;38162;45.926;13.608;2022-12-19T17:01:39;29.90;;;18.00;;
52188;SDS011;38162;45.926;13.608;2022-12-19T17:04:06;29.87;;;17.13;;
52188;SDS011;38162;45.926;13.608;2022-12-19T17:06:32;23.23;;;16.50;;
52188;SDS011;38162;45.926;13.608;2022-12-19T17:08:58;24.73;;;16.30;;
52188;SDS011;38162;45.926;13.608;2022-12-19T17:11:24;26.40;;;17.33;;
52188;SDS011;38162;45.926;13.608;2022-12-19T17:13:52;23.33;;;16.77;;
52188;SDS011;38162;45.926;13.608;2022-12-19T17:16:20;23.13;;;15.57;;
52188;SDS011;38162;45.926;13.608;2022-12-19T17:18:46;25.57;;;16.07;;
52188;SDS011;38162;45.926;13.608;2022-12-19T17:21:18;24.37;;;16.67;;
52188;SDS011;38162;45.926;13.608;2022-12-19T17:23:45;24.10;;;16.50;;
52188;SDS011;38162;45.926;13.608;2022-12-19T17:26:12;24.63;;;16.60;;
52188;SDS011;38162;45.926;13.608;2022-12-19T17:28:38;23.50;;;15.50;;
52188;SDS011;38162;45.926;13.608;2022-12-19T17:31:05;23.63;;;15.73;;
52188;SDS011;38162;45.926;13.608;2022-12-19T17:33:35;28.40;;;17.63;;
52188;SDS011;38162;45.926;13.608;2022-12-19T17:36:02;33.90;;;20.90;;
52188;SDS011;38162;45.926;13.608;2022-12-19T17:38:29;28.97;;;20.10;;
52188;SDS011;38162;45.926;13.608;2022-12-19T17:40:55;29.67;;;19.13;;
52188;SDS011;38162;45.926;13.608;2022-12-19T17:43:21;26.10;;;17.40;;
52188;SDS011;38162;45.926;13.608;2022-12-19T17:45:48;28.57;;;17.83;;
52188;SDS011;38162;45.926;13.608;2022-12-19T17:48:30;25.47;;;17.60;;